createdAt,value
2023-03-10T00:01:22.794Z,84.50
2023-03-10T00:03:49.730Z,84.46
2023-03-10T00:06:19.836Z,85.03
2023-03-10T00:08:47.297Z,85.59
2023-03-10T00:11:15.092Z,84.88
2023-03-10T00:13:42.833Z,84.32
2023-03-10T00:16:18.781Z,83.75
2023-03-10T00:18:46.494Z,79.52
2023-03-10T00:21:19.020Z,76.54
2023-03-10T00:23:47.466Z,76.07
2023-03-10T00:26:16.060Z,73.27
2023-03-10T00:28:43.072Z,73.33
2023-03-10T00:31:19.098Z,71.51
2023-03-10T00:33:46.712Z,71.26
2023-03-10T00:36:16.817Z,71.33
2023-03-10T00:38:44.861Z,72.08
2023-03-10T00:41:21.066Z,72.75
2023-03-10T00:43:47.942Z,72.21
2023-03-10T00:46:16.089Z,72.65
2023-03-10T00:48:43.496Z,73.08
2023-03-10T00:51:10.648Z,73.55
2023-03-10T00:53:39.992Z,73.82
2023-03-10T00:56:11.019Z,73.69
2023-03-10T00:58:38.390Z,74.20
2023-03-10T01:01:30.191Z,74.99
2023-03-10T01:03:59.823Z,75.74
2023-03-10T01:06:26.646Z,76.89
2023-03-10T01:08:53.980Z,77.58
2023-03-10T01:11:24.607Z,78.17
2023-03-10T01:13:52.380Z,78.37
2023-03-10T01:16:19.738Z,78.61
2023-03-10T01:18:46.477Z,79.54
2023-03-10T01:21:20.228Z,79.81
2023-03-10T01:23:47.588Z,80.04
2023-03-10T01:26:16.488Z,79.91
2023-03-10T01:28:44.298Z,80.14
2023-03-10T01:31:11.392Z,80.00
2023-03-10T01:33:43.359Z,80.65
2023-03-10T01:36:20.066Z,81.79
2023-03-10T01:38:50.686Z,81.71
2023-03-10T01:41:18.540Z,82.50
2023-03-10T01:43:47.967Z,82.06
2023-03-10T01:46:29.948Z,81.95
2023-03-10T01:49:01.228Z,82.51
2023-03-10T01:51:32.635Z,81.52
2023-03-10T01:54:00.172Z,81.54
2023-03-10T01:56:26.986Z,80.80
2023-03-10T01:58:54.440Z,81.07
2023-03-10T02:01:21.979Z,80.65
2023-03-10T02:03:57.286Z,79.37
2023-03-10T02:06:25.608Z,78.91
2023-03-10T02:08:57.789Z,79.76
2023-03-10T02:11:25.532Z,80.88
2023-03-10T02:13:52.462Z,83.04
2023-03-10T02:16:19.578Z,85.30
2023-03-10T02:18:47.557Z,83.82
2023-03-10T02:21:36.251Z,83.60
2023-03-10T02:24:06.057Z,84.41
2023-03-10T02:26:33.026Z,85.00
2023-03-10T02:29:01.938Z,83.42
2023-03-10T02:31:30.078Z,82.87
2023-03-10T02:33:57.678Z,83.47
2023-03-10T02:36:24.924Z,83.52
2023-03-10T02:38:51.878Z,83.88
2023-03-10T02:41:29.418Z,84.32
2023-03-10T02:43:56.468Z,83.29
2023-03-10T02:46:27.749Z,83.81
2023-03-10T02:48:54.762Z,83.87
2023-03-10T02:51:32.698Z,84.68
2023-03-10T02:54:00.687Z,84.42
2023-03-10T02:56:28.331Z,83.82
2023-03-10T03:01:22.124Z,85.01
2023-03-10T03:03:48.951Z,86.00
2023-03-10T03:06:15.723Z,85.07
2023-03-10T03:08:42.459Z,85.76
2023-03-10T03:11:09.435Z,86.09
2023-03-10T03:13:36.265Z,85.53
2023-03-10T03:16:06.560Z,86.08
2023-03-10T03:18:33.805Z,85.94
2023-03-10T03:21:12.186Z,86.03
2023-03-10T03:23:39.633Z,86.38
2023-03-10T03:26:18.287Z,87.32
2023-03-10T03:28:45.648Z,87.62
2023-03-10T03:31:21.823Z,88.00
2023-03-10T03:33:48.962Z,87.24
2023-03-10T03:36:15.746Z,87.69
2023-03-10T03:38:42.815Z,87.92
2023-03-10T03:41:09.991Z,87.81
2023-03-10T03:43:36.808Z,88.30
2023-03-10T03:46:04.956Z,87.98
2023-03-10T03:48:31.812Z,88.55
2023-03-10T03:50:58.492Z,88.33
2023-03-10T03:53:25.298Z,87.59
2023-03-10T03:55:52.101Z,88.21
2023-03-10T03:58:19.191Z,89.00
2023-03-10T04:00:46.286Z,90.08
2023-03-10T04:03:13.018Z,90.94
2023-03-10T04:05:41.363Z,90.84
2023-03-10T04:08:08.837Z,89.73
2023-03-10T04:10:36.829Z,89.92
2023-03-10T04:13:03.806Z,90.72
2023-03-10T04:15:30.734Z,89.48
2023-03-10T04:17:58.541Z,89.79
2023-03-10T04:20:25.794Z,89.06
2023-03-10T04:22:52.673Z,89.50
2023-03-10T04:25:19.610Z,89.47
2023-03-10T04:27:46.255Z,89.65
2023-03-10T04:30:14.767Z,89.19
2023-03-10T04:32:41.803Z,88.74
2023-03-10T04:35:09.055Z,88.89
2023-03-10T04:37:35.842Z,89.25
2023-03-10T04:40:08.394Z,90.14
2023-03-10T04:42:36.006Z,89.67
2023-03-10T04:45:06.123Z,90.23
2023-03-10T04:47:32.912Z,90.05
2023-03-10T04:49:59.600Z,90.99
2023-03-10T04:52:26.425Z,90.93
2023-03-10T04:54:53.354Z,89.75
2023-03-10T04:57:20.125Z,90.24
2023-03-10T04:59:46.927Z,90.83
2023-03-10T05:02:13.594Z,91.03
2023-03-10T05:04:40.435Z,90.56
2023-03-10T05:07:07.402Z,93.35
2023-03-10T05:09:38.029Z,93.33
2023-03-10T05:12:05.568Z,93.89
2023-03-10T05:14:32.327Z,94.57
2023-03-10T05:16:59.221Z,94.80
2023-03-10T05:19:26.564Z,94.66
2023-03-10T05:21:53.595Z,94.23
2023-03-10T05:24:21.406Z,96.86
2023-03-10T05:26:48.064Z,95.56
2023-03-10T05:29:14.718Z,96.36
2023-03-10T05:31:42.444Z,99.83
2023-03-10T05:34:11.684Z,100.00
2023-03-10T05:36:38.413Z,100.00
2023-03-10T05:39:09.717Z,100.00
2023-03-10T05:41:37.465Z,100.00
2023-03-10T05:44:04.817Z,100.00
2023-03-10T05:46:35.437Z,100.00
2023-03-10T05:49:02.565Z,100.00
2023-03-10T05:51:29.971Z,100.00
2023-03-10T05:53:57.524Z,100.00
2023-03-10T05:56:24.480Z,100.00
2023-03-10T05:58:51.182Z,100.00
2023-03-10T06:01:19.256Z,100.00
2023-03-10T06:03:46.520Z,100.00
2023-03-10T06:06:13.631Z,100.00
2023-03-10T06:08:40.632Z,100.00
2023-03-10T06:11:08.993Z,100.00
2023-03-10T06:13:36.418Z,100.00
2023-03-10T06:16:09.009Z,100.00
2023-03-10T06:18:36.485Z,100.00
2023-03-10T06:21:08.624Z,100.00
2023-03-10T06:23:36.405Z,100.00
2023-03-10T06:26:09.412Z,100.00
2023-03-10T06:28:38.581Z,100.00
2023-03-10T06:31:08.426Z,100.00
2023-03-10T06:33:39.757Z,100.00
2023-03-10T06:36:08.756Z,100.00
2023-03-10T06:38:35.836Z,100.00
2023-03-10T06:41:03.036Z,98.49
2023-03-10T06:43:31.271Z,98.89
2023-03-10T06:45:58.235Z,96.35
2023-03-10T06:48:25.229Z,96.42
2023-03-10T06:50:52.162Z,95.92
2023-03-10T06:53:20.865Z,95.87
2023-03-10T06:55:56.551Z,95.73
2023-03-10T06:58:27.757Z,95.71
2023-03-10T07:00:54.592Z,95.97
2023-03-10T07:03:21.672Z,96.35
2023-03-10T07:05:48.681Z,94.89
2023-03-10T07:08:15.338Z,94.49
2023-03-10T07:10:42.009Z,92.97
2023-03-10T07:13:09.579Z,93.09
2023-03-10T07:15:41.137Z,92.43
2023-03-10T07:18:08.377Z,92.61
2023-03-10T07:20:35.133Z,91.20
2023-03-10T07:23:01.749Z,90.52
2023-03-10T07:25:28.562Z,91.47
2023-03-10T07:30:22.028Z,92.22
2023-03-10T07:32:53.468Z,92.15
2023-03-10T07:35:20.225Z,91.58
2023-03-10T07:37:46.967Z,90.80
2023-03-10T07:40:14.137Z,90.43
2023-03-10T07:42:43.567Z,89.83
2023-03-10T07:45:12.929Z,90.04
2023-03-10T07:47:39.618Z,89.49
2023-03-10T07:50:06.889Z,89.10
2023-03-10T07:52:34.268Z,86.74
2023-03-10T07:55:01.519Z,85.71
2023-03-10T07:57:29.383Z,84.56
2023-03-10T08:02:22.625Z,83.92
2023-03-10T08:04:49.465Z,82.96
2023-03-10T08:07:16.412Z,83.54
2023-03-10T08:09:43.173Z,83.79
2023-03-10T08:12:10.185Z,84.09
2023-03-10T08:14:37.032Z,84.49
2023-03-10T08:17:04.290Z,84.02
2023-03-10T08:19:30.950Z,84.56
2023-03-10T08:22:02.711Z,83.94
2023-03-10T08:24:29.554Z,84.60
2023-03-10T08:29:23.054Z,83.87
2023-03-10T08:31:50.230Z,84.10
2023-03-10T08:34:17.242Z,82.53
2023-03-10T08:36:44.147Z,81.92
2023-03-10T08:39:13.225Z,80.82
2023-03-10T08:41:45.808Z,78.97
2023-03-10T08:44:15.695Z,80.17
2023-03-10T08:46:46.628Z,79.60
2023-03-10T08:49:16.029Z,79.22
2023-03-10T08:51:44.102Z,78.54
2023-03-10T08:54:13.454Z,78.22
2023-03-10T08:56:40.560Z,78.43
2023-03-10T08:59:07.305Z,77.37
2023-03-10T09:01:36.684Z,76.36
2023-03-10T09:04:06.220Z,75.30
2023-03-10T09:06:34.237Z,75.44
2023-03-10T09:09:01.082Z,76.63
2023-03-10T09:11:31.736Z,74.98
2023-03-10T09:13:59.837Z,74.35
2023-03-10T09:16:28.944Z,73.63
2023-03-10T09:18:57.536Z,72.60
2023-03-10T09:21:24.604Z,72.34
2023-03-10T09:23:53.048Z,73.14
2023-03-10T09:26:20.805Z,74.89
2023-03-10T09:28:51.146Z,73.96
2023-03-10T09:31:21.851Z,72.53
2023-03-10T09:33:49.570Z,73.11
2023-03-10T09:36:17.015Z,72.07
2023-03-10T09:38:43.938Z,72.81
2023-03-10T09:41:17.260Z,72.67
2023-03-10T09:43:50.929Z,73.73
2023-03-10T09:46:23.631Z,72.75
2023-03-10T09:51:26.188Z,71.21
2023-03-10T09:53:57.537Z,70.83
2023-03-10T09:56:31.756Z,73.77
2023-03-10T09:59:14.712Z,76.23
2023-03-10T10:01:45.455Z,77.06
2023-03-10T10:04:18.053Z,79.15
2023-03-10T10:06:47.498Z,80.56
2023-03-10T10:09:24.992Z,81.48
2023-03-10T10:11:51.696Z,79.78
2023-03-10T10:14:28.829Z,79.43
2023-03-10T10:16:57.734Z,79.53
2023-03-10T10:19:26.775Z,78.18
2023-03-10T10:22:02.213Z,77.91
2023-03-10T10:24:29.798Z,77.27
2023-03-10T10:26:57.899Z,76.04
2023-03-10T10:29:47.159Z,74.12
2023-03-10T10:32:16.202Z,72.43
2023-03-10T10:34:45.084Z,68.47
2023-03-10T10:37:26.990Z,69.97
2023-03-10T10:42:28.773Z,69.97
2023-03-10T10:44:56.987Z,70.13
2023-03-10T10:47:26.743Z,70.30
2023-03-10T10:49:54.351Z,69.25
2023-03-10T10:52:24.054Z,69.16
2023-03-10T10:54:56.672Z,69.72
2023-03-10T10:57:32.356Z,71.68
2023-03-10T11:00:25.586Z,72.46
2023-03-10T11:02:53.654Z,71.81
2023-03-10T11:05:31.979Z,71.34
2023-03-10T11:08:28.436Z,68.78
2023-03-10T11:10:56.971Z,67.82
2023-03-10T11:13:32.218Z,66.84
2023-03-10T11:16:12.182Z,66.37
2023-03-10T11:18:58.642Z,61.20
2023-03-10T11:21:31.928Z,60.84
2023-03-10T11:24:16.849Z,59.79
2023-03-10T11:26:57.640Z,60.19
2023-03-10T11:29:38.780Z,61.93
2023-03-10T11:32:34.383Z,58.96
2023-03-10T11:35:16.486Z,61.10
2023-03-10T11:37:52.271Z,65.19
2023-03-10T11:40:20.100Z,65.37
2023-03-10T11:45:35.585Z,63.99
2023-03-10T11:48:33.057Z,66.62
2023-03-10T11:51:05.499Z,73.11
2023-03-10T11:53:45.863Z,78.17
2023-03-10T11:56:15.629Z,79.38
2023-03-10T11:58:52.137Z,82.70
2023-03-10T12:01:27.224Z,84.92
2023-03-10T12:03:58.014Z,85.60
2023-03-10T12:06:42.274Z,81.61
2023-03-10T12:09:19.914Z,82.05
2023-03-10T12:11:48.365Z,78.85
2023-03-10T12:14:15.757Z,80.19
2023-03-10T12:16:43.920Z,81.30
2023-03-10T12:19:10.778Z,82.61
2023-03-10T12:21:37.498Z,78.90
2023-03-10T12:24:06.162Z,79.06
2023-03-10T12:26:39.179Z,73.75
2023-03-10T12:29:21.579Z,77.59
2023-03-10T12:31:53.920Z,77.07
2023-03-10T12:34:23.257Z,76.85
2023-03-10T12:36:56.704Z,76.82
2023-03-10T12:39:29.154Z,76.50
2023-03-10T12:41:57.642Z,71.32
2023-03-10T12:44:49.219Z,70.38
2023-03-10T12:47:19.166Z,70.18
2023-03-10T12:49:57.746Z,67.92
2023-03-10T12:52:40.187Z,66.82
2023-03-10T12:55:26.804Z,66.42
2023-03-10T13:00:40.734Z,68.14
2023-03-10T13:03:10.747Z,68.82
2023-03-10T13:05:56.800Z,69.74
2023-03-10T13:08:31.829Z,70.19
2023-03-10T13:11:00.669Z,70.48
2023-03-10T13:13:35.234Z,69.94
2023-03-10T13:16:19.647Z,71.03
2023-03-10T13:18:49.338Z,71.40
2023-03-10T13:21:31.079Z,71.65
2023-03-10T13:24:01.687Z,69.92
2023-03-10T13:26:28.821Z,71.93
2023-03-10T13:31:27.172Z,71.91
2023-03-10T13:36:33.415Z,72.48
2023-03-10T13:39:15.604Z,71.97
2023-03-10T13:41:48.316Z,71.99
2023-03-10T13:44:43.480Z,73.60
2023-03-10T13:47:23.014Z,75.09
2023-03-10T13:49:57.749Z,77.86
2023-03-10T13:52:27.463Z,80.22
2023-03-10T13:54:57.733Z,82.25
2023-03-10T13:57:34.907Z,81.14
2023-03-10T14:00:02.694Z,80.08
2023-03-10T14:02:45.775Z,79.96
2023-03-10T14:05:38.873Z,80.48
2023-03-10T14:08:07.214Z,78.00
2023-03-10T14:10:33.932Z,76.86
2023-03-10T14:13:00.692Z,76.86
2023-03-10T14:15:31.161Z,77.35
2023-03-10T14:18:07.198Z,79.11
2023-03-10T14:20:36.556Z,78.73
2023-03-10T14:23:19.221Z,81.98
2023-03-10T14:25:47.033Z,83.89
2023-03-10T14:28:18.478Z,82.82
2023-03-10T14:30:45.463Z,82.48
2023-03-10T14:33:15.875Z,83.13
2023-03-10T14:35:44.297Z,83.72
2023-03-10T14:38:11.795Z,85.40
2023-03-10T14:40:45.793Z,89.05
2023-03-10T14:43:39.621Z,92.43
2023-03-10T14:46:07.852Z,95.81
2023-03-10T14:48:39.152Z,96.25
2023-03-10T14:51:07.180Z,99.22
2023-03-10T14:53:34.209Z,97.93
2023-03-10T14:56:04.400Z,98.21
2023-03-10T14:58:34.799Z,98.39
2023-03-10T15:01:01.834Z,99.44
2023-03-10T15:03:28.762Z,99.32
2023-03-10T15:08:22.101Z,100.00
2023-03-10T15:10:51.239Z,100.00
2023-03-10T15:13:24.324Z,100.00
2023-03-10T15:15:51.909Z,100.00
2023-03-10T15:18:21.500Z,100.00
2023-03-10T15:20:49.275Z,100.00
2023-03-10T15:23:19.817Z,100.00
2023-03-10T15:25:47.183Z,100.00
2023-03-10T15:28:15.298Z,100.00
2023-03-10T15:30:42.358Z,100.00
2023-03-10T15:33:10.828Z,100.00
2023-03-10T15:35:38.489Z,100.00
2023-03-10T15:38:05.604Z,100.00
2023-03-10T15:40:33.236Z,100.00
2023-03-10T15:43:01.076Z,100.00
2023-03-10T15:45:30.278Z,100.00
2023-03-10T15:47:56.925Z,100.00
2023-03-10T15:50:24.284Z,100.00
2023-03-10T15:55:23.188Z,100.00
2023-03-10T15:57:50.194Z,100.00
2023-03-10T16:00:19.571Z,100.00
2023-03-10T16:02:47.402Z,100.00
2023-03-10T16:05:14.656Z,100.00
2023-03-10T16:07:41.597Z,100.00
2023-03-10T16:10:17.202Z,100.00
2023-03-10T16:12:44.247Z,100.00
2023-03-10T16:15:11.801Z,100.00
2023-03-10T16:17:38.561Z,100.00
2023-03-10T16:20:09.164Z,100.00
2023-03-10T16:22:40.582Z,100.00
2023-03-10T16:25:10.354Z,100.00
2023-03-10T16:27:37.628Z,100.00
2023-03-10T16:30:05.056Z,100.00
2023-03-10T16:32:32.063Z,99.67
2023-03-10T16:35:00.203Z,94.79
2023-03-10T16:37:29.126Z,91.51
2023-03-10T16:42:24.016Z,93.25
2023-03-10T16:44:50.805Z,94.00
2023-03-10T16:47:18.125Z,91.70
2023-03-10T16:49:44.985Z,89.90
2023-03-10T16:52:11.810Z,91.33
2023-03-10T16:54:39.162Z,93.42
2023-03-10T16:57:09.531Z,92.43
2023-03-10T16:59:37.070Z,94.49
2023-03-10T17:02:05.249Z,92.51
2023-03-10T17:04:31.886Z,92.37
2023-03-10T17:06:59.049Z,94.55
2023-03-10T17:09:25.751Z,95.02
2023-03-10T17:11:55.354Z,97.04
2023-03-10T17:14:23.314Z,97.78
2023-03-10T17:16:50.367Z,95.13
2023-03-10T17:19:20.780Z,97.19
2023-03-10T17:21:50.823Z,96.79
2023-03-10T17:24:19.165Z,94.79
2023-03-10T17:26:46.311Z,94.16
2023-03-10T17:29:14.036Z,94.91
2023-03-10T17:31:41.286Z,93.48
2023-03-10T17:34:11.180Z,92.64
2023-03-10T17:36:37.996Z,93.79
2023-03-10T17:39:05.746Z,89.24
2023-03-10T17:41:37.510Z,88.83
2023-03-10T17:44:07.223Z,90.14
2023-03-10T17:46:38.388Z,89.78
2023-03-10T17:49:05.428Z,87.58
2023-03-10T17:51:33.664Z,87.78
2023-03-10T17:54:02.135Z,86.77
2023-03-10T17:56:29.238Z,86.73
2023-03-10T17:58:57.981Z,86.87
2023-03-10T18:01:27.905Z,83.11
2023-03-10T18:06:26.693Z,84.72
2023-03-10T18:08:56.243Z,84.50
2023-03-10T18:11:22.506Z,84.04
2023-03-10T18:13:50.797Z,82.67
2023-03-10T18:16:23.499Z,81.71
2023-03-10T18:18:50.871Z,82.50
2023-03-10T18:21:19.357Z,79.96
2023-03-10T18:23:47.296Z,79.65
2023-03-10T18:26:16.842Z,79.05
2023-03-10T18:28:44.180Z,79.77
2023-03-10T18:31:18.362Z,78.21
2023-03-10T18:33:46.675Z,79.27
2023-03-10T18:36:15.046Z,79.05
2023-03-10T18:38:42.639Z,78.57
2023-03-10T18:41:10.167Z,77.39
2023-03-10T18:43:37.423Z,78.20
2023-03-10T18:46:04.993Z,79.05
2023-03-10T18:48:31.988Z,78.49
2023-03-10T18:51:00.829Z,79.42
2023-03-10T18:53:28.752Z,81.92
2023-03-10T18:55:58.318Z,83.78
2023-03-10T18:58:26.540Z,83.55
2023-03-10T19:00:53.829Z,80.87
2023-03-10T19:03:20.920Z,78.12
2023-03-10T19:05:53.044Z,79.74
2023-03-10T19:08:20.377Z,77.59
2023-03-10T19:13:28.151Z,74.77
2023-03-10T19:18:23.386Z,75.42
2023-03-10T19:20:51.260Z,71.36
2023-03-10T19:23:18.027Z,72.22
2023-03-10T19:25:44.894Z,71.73
2023-03-10T19:28:11.993Z,71.15
2023-03-10T19:30:42.950Z,71.59
2023-03-10T19:33:11.081Z,71.67
2023-03-10T19:35:40.064Z,71.54
2023-03-10T19:38:08.086Z,70.35
2023-03-10T19:40:38.583Z,71.66
2023-03-10T19:43:06.385Z,72.53
2023-03-10T19:45:34.586Z,76.41
2023-03-10T19:48:01.597Z,84.56
2023-03-10T19:50:29.648Z,91.15
2023-03-10T19:55:25.364Z,88.13
2023-03-10T19:57:54.424Z,85.79
2023-03-10T20:00:25.774Z,87.35
2023-03-10T20:02:55.360Z,86.77
2023-03-10T20:05:23.217Z,88.28
2023-03-10T20:07:50.341Z,89.36
2023-03-10T20:10:18.354Z,90.49
2023-03-10T20:12:47.359Z,90.60
2023-03-10T20:15:15.763Z,87.72
2023-03-10T20:17:42.753Z,86.49
2023-03-10T20:20:11.010Z,88.25
2023-03-10T20:22:43.511Z,87.79
2023-03-10T20:25:12.828Z,86.97
2023-03-10T20:27:39.632Z,88.28
2023-03-10T20:30:21.636Z,86.53
2023-03-10T20:32:48.523Z,85.32
2023-03-10T20:35:16.452Z,86.34
2023-03-10T20:37:44.248Z,86.00
2023-03-10T20:40:16.502Z,85.65
2023-03-10T20:42:43.389Z,84.12
2023-03-10T20:45:11.401Z,85.26
2023-03-10T20:47:38.463Z,82.78
2023-03-10T20:50:07.824Z,80.54
2023-03-10T20:52:42.335Z,76.81
2023-03-10T20:55:16.337Z,75.69
2023-03-10T20:57:43.139Z,74.96
2023-03-10T21:00:12.360Z,74.63
2023-03-10T21:02:39.348Z,75.05
2023-03-10T21:05:06.883Z,75.74
2023-03-10T21:07:33.525Z,75.78
2023-03-10T21:10:00.725Z,77.30
2023-03-10T21:12:28.571Z,77.52
2023-03-10T21:17:23.145Z,76.86
2023-03-10T21:19:49.903Z,76.50
2023-03-10T21:22:16.714Z,74.74
2023-03-10T21:24:43.372Z,74.81
2023-03-10T21:27:10.142Z,75.94
2023-03-10T21:29:36.958Z,74.58
2023-03-10T21:32:04.297Z,74.56
2023-03-10T21:34:33.011Z,74.94
2023-03-10T21:37:00.460Z,74.60
2023-03-10T21:39:27.560Z,74.01
2023-03-10T21:41:54.506Z,74.95
2023-03-10T21:44:21.151Z,75.01
2023-03-10T21:46:49.361Z,75.59
2023-03-10T21:49:16.104Z,75.47
2023-03-10T21:51:43.037Z,75.16
2023-03-10T21:54:10.192Z,75.27
2023-03-10T21:56:37.791Z,75.74
2023-03-10T21:59:04.492Z,75.50
2023-03-10T22:01:32.162Z,74.73
2023-03-10T22:03:58.989Z,74.42
2023-03-10T22:06:25.897Z,74.10
2023-03-10T22:08:53.242Z,74.45
2023-03-10T22:11:22.915Z,74.54
2023-03-10T22:13:49.631Z,73.86
2023-03-10T22:16:18.099Z,73.67
2023-03-10T22:18:45.731Z,73.96
2023-03-10T22:21:12.499Z,74.81
2023-03-10T22:23:39.253Z,76.43
2023-03-10T22:26:08.213Z,76.53
2023-03-10T22:28:36.062Z,77.94
2023-03-10T22:31:12.936Z,77.71
2023-03-10T22:33:41.362Z,78.53
2023-03-10T22:36:12.171Z,78.99
2023-03-10T22:38:41.069Z,77.40
2023-03-10T22:41:11.947Z,77.34
2023-03-10T22:43:39.882Z,75.63
2023-03-10T22:46:11.057Z,75.74
2023-03-10T22:48:38.063Z,75.69
2023-03-10T22:51:11.510Z,73.16
2023-03-10T22:53:38.309Z,73.35
2023-03-10T22:56:07.788Z,73.42
2023-03-10T22:58:34.494Z,72.91
2023-03-10T23:01:01.505Z,72.95
2023-03-10T23:03:28.330Z,72.09
2023-03-10T23:05:57.983Z,72.44
2023-03-10T23:08:25.130Z,71.35
2023-03-10T23:10:52.473Z,71.75
2023-03-10T23:13:20.757Z,71.31
2023-03-10T23:15:48.039Z,71.39
2023-03-10T23:18:15.066Z,71.63
2023-03-10T23:20:45.404Z,71.42
2023-03-10T23:23:14.849Z,71.97
2023-03-10T23:25:47.290Z,70.78
2023-03-10T23:28:16.406Z,71.07
2023-03-10T23:30:45.082Z,71.50
2023-03-10T23:33:20.599Z,69.17
2023-03-10T23:35:50.763Z,70.13
2023-03-10T23:38:18.207Z,70.23
2023-03-10T23:40:45.051Z,69.17
2023-03-10T23:43:15.335Z,69.60
2023-03-10T23:45:42.223Z,69.04
2023-03-10T23:48:16.150Z,68.59
2023-03-10T23:50:44.555Z,69.15
2023-03-10T23:53:13.368Z,68.77
2023-03-10T23:55:42.808Z,68.97
2023-03-10T23:58:10.120Z,68.84
